Hollis, Illinois
Current Conditions -  °F | °C
As of 12:54 PM on Thursday 27 Nov 2014 (Local Time) from KPIA Reporting Station
Overcast Overcast  
Wind Chill: 14°   Ceiling: 1700
Heat Index: 25°   Visibility: 10mi
Dew Point: 16°   Wind: 12mph
Humidity: 69%   Direction: 300°WNW
Pressure: 30.42"   Gusts: NA
Location:  40.6465°N, 89.6859°W
Report Text: KPIA 271854Z 30010KT 10SM OVC017 M04/M09 A3042 RMK AO2 SLP311 T10391089
Loading
Personal Weather Stations






























Interactive Weather Map New forecast layout! Learn more

10-Day Weather Forecast

Advertisements
Track Severe Weather on mobile